createdAt,value
2018-04-22T00:00:03.540Z,3.62
2018-04-22T00:02:29.701Z,3.50
2018-04-22T00:04:55.978Z,2.72
2018-04-22T00:07:22.150Z,2.80
2018-04-22T00:09:48.280Z,2.75
2018-04-22T00:12:15.540Z,3.62
2018-04-22T00:14:41.727Z,2.67
2018-04-22T00:17:07.926Z,2.47
2018-04-22T00:19:34.084Z,3.87
2018-04-22T00:22:00.255Z,2.50
2018-04-22T00:24:26.398Z,2.62
2018-04-22T00:26:52.542Z,3.62
2018-04-22T00:29:18.778Z,2.50
2018-04-22T00:31:44.937Z,2.50
2018-04-22T00:34:11.091Z,2.87
2018-04-22T00:36:37.256Z,2.58
2018-04-22T00:39:03.455Z,3.08
2018-04-22T00:41:29.630Z,2.78
2018-04-22T00:43:55.845Z,3.90
2018-04-22T00:46:22.006Z,2.67
2018-04-22T00:48:48.172Z,3.55
2018-04-22T00:51:14.334Z,2.47
2018-04-22T00:53:40.520Z,2.47
2018-04-22T00:56:06.731Z,2.72
2018-04-22T00:58:33.619Z,3.70
2018-04-22T01:01:00.886Z,2.62
2018-04-22T01:03:27.073Z,2.65
2018-04-22T01:05:53.240Z,2.95
2018-04-22T01:08:20.182Z,3.08
2018-04-22T01:10:46.354Z,2.87
2018-04-22T01:13:12.566Z,2.60
2018-04-22T01:15:38.773Z,2.42
2018-04-22T01:18:05.025Z,3.58
2018-04-22T01:20:31.203Z,3.42
2018-04-22T01:22:57.382Z,2.25
2018-04-22T01:25:23.590Z,2.92
2018-04-22T01:27:49.757Z,2.50
2018-04-22T01:30:15.964Z,2.25
2018-04-22T01:32:42.153Z,2.40
2018-04-22T01:35:08.374Z,2.92
2018-04-22T01:37:35.315Z,3.05
2018-04-22T01:40:01.491Z,2.67
2018-04-22T01:42:27.665Z,2.78
2018-04-22T01:44:53.912Z,3.47
2018-04-22T01:47:20.181Z,2.70
2018-04-22T01:49:46.334Z,3.15
2018-04-22T01:52:12.493Z,2.60
2018-04-22T01:54:38.669Z,2.55
2018-04-22T01:57:04.875Z,3.83
2018-04-22T01:59:31.054Z,3.00
2018-04-22T02:01:57.960Z,2.65
2018-04-22T02:04:24.160Z,2.60
2018-04-22T02:06:50.354Z,2.70
2018-04-22T02:09:16.593Z,2.62
2018-04-22T02:11:42.789Z,2.80
2018-04-22T02:14:09.041Z,3.03
2018-04-22T02:16:35.237Z,2.90
2018-04-22T02:19:01.397Z,2.78
2018-04-22T02:21:27.586Z,2.80
2018-04-22T02:23:53.726Z,3.17
2018-04-22T02:26:19.869Z,2.90
2018-04-22T02:28:46.064Z,3.45
2018-04-22T02:31:12.250Z,3.10
2018-04-22T02:33:38.468Z,3.47
2018-04-22T02:36:04.621Z,3.17
2018-04-22T02:38:30.769Z,2.92
2018-04-22T02:40:56.919Z,3.17
2018-04-22T02:43:23.106Z,3.72
2018-04-22T02:45:49.296Z,3.12
2018-04-22T02:48:15.451Z,3.55
2018-04-22T02:50:41.632Z,3.12
2018-04-22T02:53:07.797Z,3.78
2018-04-22T02:55:33.970Z,3.37
2018-04-22T02:58:00.147Z,2.80
2018-04-22T03:00:26.348Z,3.25
2018-04-22T03:02:53.258Z,3.22
2018-04-22T03:05:19.452Z,2.65
2018-04-22T03:07:45.635Z,2.90
2018-04-22T03:10:11.823Z,3.40
2018-04-22T03:12:38.713Z,3.55
2018-04-22T03:15:04.864Z,4.20
2018-04-22T03:17:31.017Z,3.50
2018-04-22T03:19:57.234Z,3.10
2018-04-22T03:22:23.432Z,2.67
2018-04-22T03:24:49.614Z,3.05
2018-04-22T03:27:15.826Z,3.20
2018-04-22T03:29:42.006Z,3.05
2018-04-22T03:32:08.154Z,3.12
2018-04-22T03:34:35.092Z,2.85
2018-04-22T03:37:01.244Z,2.70
2018-04-22T03:39:27.396Z,3.05
2018-04-22T03:41:53.529Z,3.08
2018-04-22T03:44:19.681Z,3.17
2018-04-22T03:46:45.849Z,3.60
2018-04-22T03:49:12.039Z,3.15
2018-04-22T03:51:38.213Z,3.20
2018-04-22T03:54:04.387Z,3.20
2018-04-22T03:56:30.556Z,3.35
2018-04-22T03:58:56.760Z,3.40
2018-04-22T04:01:22.961Z,3.35
2018-04-22T04:03:50.659Z,4.15
2018-04-22T04:06:16.817Z,3.42
2018-04-22T04:08:42.975Z,3.70
2018-04-22T04:11:09.176Z,4.18
2018-04-22T04:13:35.393Z,7.50
2018-04-22T04:16:01.605Z,5.57
2018-04-22T04:18:29.269Z,6.55
2018-04-22T04:20:55.443Z,4.65
2018-04-22T04:23:21.638Z,6.15
2018-04-22T04:25:48.549Z,8.35
2018-04-22T04:28:14.737Z,14.73
2018-04-22T04:30:40.994Z,16.77
2018-04-22T04:33:07.201Z,10.07
2018-04-22T04:35:34.920Z,9.48
2018-04-22T04:38:01.091Z,8.85
2018-04-22T04:40:27.280Z,21.52
2018-04-22T04:42:53.503Z,8.75
2018-04-22T04:45:19.672Z,9.80
2018-04-22T04:47:45.902Z,9.73
2018-04-22T04:50:12.048Z,7.72
2018-04-22T04:52:38.224Z,8.52
2018-04-22T04:55:05.162Z,7.10
2018-04-22T04:57:31.333Z,8.93
2018-04-22T04:59:57.564Z,9.15
2018-04-22T05:02:23.750Z,6.28
2018-04-22T05:04:50.280Z,16.92
2018-04-22T05:07:16.488Z,10.45
2018-04-22T05:09:42.645Z,12.85
2018-04-22T05:12:08.821Z,10.40
2018-04-22T05:14:35.012Z,10.73
2018-04-22T05:17:01.206Z,12.45
2018-04-22T05:19:27.405Z,7.87
2018-04-22T05:21:53.661Z,11.30
2018-04-22T05:24:19.854Z,8.50
2018-04-22T05:26:46.733Z,8.35
2018-04-22T05:29:12.908Z,12.45
2018-04-22T05:31:39.835Z,7.68
2018-04-22T05:34:06.026Z,11.70
2018-04-22T05:36:32.305Z,11.57
2018-04-22T05:38:58.434Z,9.77
2018-04-22T05:41:24.624Z,8.65
2018-04-22T05:43:50.857Z,9.88
2018-04-22T05:46:17.029Z,10.43
2018-04-22T05:48:43.317Z,9.93
2018-04-22T05:51:09.453Z,8.15
2018-04-22T05:53:35.705Z,12.13
2018-04-22T05:56:01.956Z,13.15
2018-04-22T05:58:28.117Z,12.52
2018-04-22T06:00:54.567Z,11.95
2018-04-22T06:03:20.740Z,14.70
2018-04-22T06:05:46.925Z,11.05
2018-04-22T06:08:13.124Z,11.80
2018-04-22T06:10:39.293Z,8.75
2018-04-22T06:13:06.924Z,7.90
2018-04-22T06:15:33.073Z,8.30
2018-04-22T06:17:59.267Z,12.35
2018-04-22T06:20:25.438Z,7.97
2018-04-22T06:22:51.672Z,6.60
2018-04-22T06:25:18.587Z,7.93
2018-04-22T06:27:45.963Z,14.95
2018-04-22T06:30:12.141Z,8.73
2018-04-22T06:32:38.379Z,12.55
2018-04-22T06:35:04.549Z,9.70
2018-04-22T06:37:30.800Z,8.98
2018-04-22T06:39:57.010Z,7.75
2018-04-22T06:42:23.183Z,9.43
2018-04-22T06:44:49.377Z,14.45
2018-04-22T06:47:16.299Z,9.38
2018-04-22T06:49:42.480Z,6.80
2018-04-22T06:52:08.654Z,12.15
2018-04-22T06:54:34.891Z,9.73
2018-04-22T06:57:01.104Z,7.65
2018-04-22T06:59:27.357Z,6.00
2018-04-22T07:01:53.527Z,7.65
2018-04-22T07:04:20.192Z,8.82
2018-04-22T07:06:46.369Z,5.37
2018-04-22T07:09:12.596Z,7.45
2018-04-22T07:11:38.766Z,7.18
2018-04-22T07:14:04.958Z,7.97
2018-04-22T07:16:31.136Z,6.57
2018-04-22T07:18:57.809Z,7.03
2018-04-22T07:21:24.145Z,7.00
2018-04-22T07:23:50.367Z,7.03
2018-04-22T07:26:16.565Z,7.72
2018-04-22T07:28:42.749Z,10.23
2018-04-22T07:31:08.913Z,9.10
2018-04-22T07:33:35.096Z,9.38
2018-04-22T07:36:01.276Z,9.05
2018-04-22T07:38:28.226Z,11.93
2018-04-22T07:40:54.415Z,7.05
2018-04-22T07:43:20.647Z,8.18
2018-04-22T07:45:46.847Z,6.93
2018-04-22T07:48:13.019Z,7.62
2018-04-22T07:50:39.206Z,8.52
2018-04-22T07:53:05.434Z,7.72
2018-04-22T07:55:31.638Z,7.25
2018-04-22T07:57:57.877Z,6.50
2018-04-22T08:00:24.105Z,5.45
2018-04-22T08:02:50.295Z,6.55
2018-04-22T08:05:16.715Z,7.35
2018-04-22T08:07:42.920Z,7.20
2018-04-22T08:10:09.117Z,6.20
2018-04-22T08:12:35.300Z,6.78
2018-04-22T08:15:01.564Z,6.90
2018-04-22T08:17:27.793Z,6.62
2018-04-22T08:19:53.951Z,6.93
2018-04-22T08:22:20.124Z,6.12
2018-04-22T08:24:46.314Z,6.18
2018-04-22T08:27:13.212Z,6.05
2018-04-22T08:29:39.881Z,6.53
2018-04-22T08:32:06.119Z,4.90
2018-04-22T08:34:32.321Z,6.03
2018-04-22T08:36:58.565Z,5.70
2018-04-22T08:39:24.819Z,5.35
2018-04-22T08:41:51.057Z,5.70
2018-04-22T08:44:17.256Z,10.80
2018-04-22T08:46:43.462Z,7.18
2018-04-22T08:49:09.696Z,25.58
2018-04-22T08:51:35.864Z,6.95
2018-04-22T08:54:02.049Z,12.65
2018-04-22T08:56:28.234Z,12.35
2018-04-22T08:58:54.395Z,12.63
2018-04-22T09:01:20.624Z,11.00
2018-04-22T09:03:46.779Z,8.60
2018-04-22T09:06:12.943Z,8.10
2018-04-22T09:08:39.158Z,8.50
2018-04-22T09:11:05.350Z,10.68
2018-04-22T09:13:31.595Z,12.23
2018-04-22T09:15:57.911Z,19.12
2018-04-22T09:18:24.122Z,20.27
2018-04-22T09:20:50.286Z,18.10
2018-04-22T09:23:16.491Z,21.00
2018-04-22T09:25:42.725Z,23.58
2018-04-22T09:28:08.882Z,20.30
2018-04-22T09:30:35.083Z,22.83
2018-04-22T09:33:01.261Z,17.55
2018-04-22T09:35:27.441Z,21.70
2018-04-22T09:37:53.668Z,19.67
2018-04-22T09:40:19.842Z,19.77
2018-04-22T09:42:46.758Z,25.40
2018-04-22T09:45:12.969Z,17.10
2018-04-22T09:47:39.140Z,18.35
2018-04-22T09:50:05.353Z,15.32
2018-04-22T09:52:31.559Z,18.98
2018-04-22T09:54:58.703Z,18.17
2018-04-22T09:57:24.928Z,20.23
2018-04-22T09:59:51.167Z,20.45
2018-04-22T10:02:23.379Z,17.77
2018-04-22T10:04:49.622Z,17.33
2018-04-22T10:07:17.271Z,15.82
2018-04-22T10:09:43.428Z,15.68
2018-04-22T10:12:09.599Z,19.00
2018-04-22T10:14:35.833Z,15.95
2018-04-22T10:17:02.117Z,19.17
2018-04-22T10:19:28.332Z,19.10
2018-04-22T10:21:54.547Z,17.12
2018-04-22T10:24:20.688Z,16.80
2018-04-22T10:26:46.880Z,17.33
2018-04-22T10:29:14.540Z,17.48
2018-04-22T10:31:40.684Z,17.58
2018-04-22T10:34:06.832Z,16.85
2018-04-22T10:36:33.041Z,16.77
2018-04-22T10:38:59.256Z,17.75
2018-04-22T10:41:25.409Z,14.43
2018-04-22T10:43:51.613Z,16.00
2018-04-22T10:46:18.542Z,16.02
2018-04-22T10:48:44.745Z,13.68
2018-04-22T10:51:10.973Z,16.02
2018-04-22T10:53:37.163Z,19.85
2018-04-22T10:56:03.325Z,18.02
2018-04-22T10:58:29.486Z,15.90
2018-04-22T11:00:55.920Z,15.90
2018-04-22T11:03:22.120Z,14.77
2018-04-22T11:05:48.338Z,15.07
2018-04-22T11:08:14.526Z,13.55
2018-04-22T11:10:40.721Z,11.27
2018-04-22T11:13:06.887Z,13.00
2018-04-22T11:15:33.844Z,11.77
2018-04-22T11:18:00.753Z,11.48
2018-04-22T11:20:26.881Z,10.60
2018-04-22T11:22:53.026Z,11.95
2018-04-22T11:25:20.694Z,10.32
2018-04-22T11:27:46.894Z,10.93
2018-04-22T11:30:13.079Z,10.18
2018-04-22T11:32:39.267Z,9.77
2018-04-22T11:35:05.429Z,10.45
2018-04-22T11:37:31.603Z,9.55
2018-04-22T11:39:57.778Z,10.68
2018-04-22T11:42:24.710Z,10.57
2018-04-22T11:44:50.900Z,8.77
2018-04-22T11:47:17.087Z,10.82
2018-04-22T11:49:43.251Z,10.65
2018-04-22T11:52:09.432Z,13.82
2018-04-22T11:54:35.641Z,11.23
2018-04-22T11:57:01.783Z,9.20
2018-04-22T11:59:27.965Z,10.13
2018-04-22T12:01:54.144Z,9.93
2018-04-22T12:04:20.350Z,8.73
2018-04-22T12:06:46.522Z,9.05
2018-04-22T12:09:12.715Z,10.95
2018-04-22T12:11:38.936Z,10.45
2018-04-22T12:14:05.124Z,9.63
2018-04-22T12:16:31.313Z,8.85
2018-04-22T12:18:57.476Z,8.80
2018-04-22T12:21:23.684Z,12.23
2018-04-22T12:23:49.926Z,9.35
2018-04-22T12:26:16.156Z,11.48
2018-04-22T12:28:42.360Z,11.15
2018-04-22T12:31:09.287Z,11.12
2018-04-22T12:33:35.471Z,10.70
2018-04-22T12:36:01.652Z,12.02
2018-04-22T12:38:27.884Z,12.27
2018-04-22T12:40:54.076Z,11.05
2018-04-22T12:43:20.307Z,10.32
2018-04-22T12:45:46.513Z,10.70
2018-04-22T12:48:12.695Z,12.18
2018-04-22T12:50:38.898Z,11.50
2018-04-22T12:53:06.563Z,12.63
2018-04-22T12:55:32.746Z,11.07
2018-04-22T12:57:58.917Z,11.12
2018-04-22T13:00:25.082Z,10.52
2018-04-22T13:02:51.293Z,9.10
2018-04-22T13:05:17.493Z,9.65
2018-04-22T13:07:43.692Z,10.88
2018-04-22T13:10:09.856Z,8.77
2018-04-22T13:12:36.037Z,8.27
2018-04-22T13:15:02.207Z,8.50
2018-04-22T13:17:28.378Z,8.52
2018-04-22T13:19:54.595Z,9.50
2018-04-22T13:22:20.780Z,9.35
2018-04-22T13:24:46.957Z,9.02
2018-04-22T13:27:13.130Z,10.07
2018-04-22T13:29:39.307Z,8.70
2018-04-22T13:32:05.491Z,9.63
2018-04-22T13:34:31.645Z,7.78
2018-04-22T13:36:57.805Z,7.87
2018-04-22T13:39:23.943Z,8.98
2018-04-22T13:41:50.109Z,8.20
2018-04-22T13:44:16.283Z,7.90
2018-04-22T13:46:42.469Z,9.40
2018-04-22T13:49:08.661Z,7.07
2018-04-22T13:51:34.809Z,8.13
2018-04-22T13:54:01.001Z,8.23
2018-04-22T13:56:27.214Z,7.70
2018-04-22T13:58:53.357Z,8.07
2018-04-22T14:01:19.717Z,7.22
2018-04-22T14:03:45.873Z,6.82
2018-04-22T14:06:12.056Z,6.95
2018-04-22T14:08:38.244Z,6.50
2018-04-22T14:11:05.133Z,5.82
2018-04-22T14:13:31.313Z,6.37
2018-04-22T14:15:57.576Z,6.60
2018-04-22T14:18:23.704Z,6.82
2018-04-22T14:27:32.008Z,8.27
2018-04-22T14:29:58.182Z,7.30
2018-04-22T14:32:24.347Z,7.43
2018-04-22T14:34:50.510Z,7.75
2018-04-22T14:37:16.700Z,8.35
2018-04-22T14:39:42.912Z,7.72
2018-04-22T14:42:09.076Z,8.27
2018-04-22T14:44:35.629Z,10.93
2018-04-22T14:47:02.591Z,18.65
2018-04-22T14:49:28.773Z,12.70
2018-04-22T14:51:54.995Z,11.12
2018-04-22T14:54:21.212Z,8.80
2018-04-22T14:56:47.385Z,8.10
2018-04-22T14:59:13.568Z,7.53
2018-04-22T15:01:39.769Z,7.05
2018-04-22T15:04:05.985Z,7.60
2018-04-22T15:06:32.136Z,9.10
2018-04-22T15:08:58.276Z,9.18
2018-04-22T15:11:24.523Z,11.93
2018-04-22T15:13:50.784Z,6.10
2018-04-22T15:16:16.987Z,9.20
2018-04-22T15:18:43.204Z,6.20
2018-04-22T15:21:09.380Z,6.65
2018-04-22T15:23:36.328Z,7.78
2018-04-22T15:26:02.481Z,6.12
2018-04-22T15:28:28.684Z,7.12
2018-04-22T15:30:54.846Z,8.43
2018-04-22T15:33:21.007Z,8.82
2018-04-22T15:35:47.159Z,6.97
2018-04-22T15:38:13.312Z,7.37
2018-04-22T15:40:39.490Z,7.15
2018-04-22T15:43:05.644Z,8.15
2018-04-22T15:45:31.812Z,7.45
2018-04-22T15:47:57.948Z,7.22
2018-04-22T15:50:24.110Z,5.90
2018-04-22T15:52:50.312Z,6.40
2018-04-22T15:55:16.472Z,6.30
2018-04-22T15:57:42.645Z,7.25
2018-04-22T16:00:08.809Z,5.12
2018-04-22T16:02:34.968Z,8.95
2018-04-22T16:05:01.136Z,5.37
2018-04-22T16:07:27.298Z,5.57
2018-04-22T16:09:53.471Z,4.55
2018-04-22T16:12:19.674Z,6.00
2018-04-22T16:14:45.880Z,4.07
2018-04-22T16:17:12.088Z,6.50
2018-04-22T16:19:38.266Z,4.80
2018-04-22T16:22:04.437Z,5.60
2018-04-22T16:24:30.643Z,5.97
2018-04-22T16:26:56.815Z,6.37
2018-04-22T16:29:23.009Z,6.93
2018-04-22T16:31:49.912Z,6.25
2018-04-22T16:34:16.086Z,6.15
2018-04-22T16:36:42.317Z,5.85
2018-04-22T16:39:08.463Z,7.47
2018-04-22T16:41:34.627Z,5.30
2018-04-22T16:44:01.684Z,5.00
2018-04-22T16:46:27.913Z,6.65
2018-04-22T16:48:54.057Z,5.40
2018-04-22T16:51:20.258Z,4.55
2018-04-22T16:53:46.409Z,5.70
2018-04-22T16:56:12.614Z,7.35
2018-04-22T16:58:38.861Z,5.90
2018-04-22T17:01:05.035Z,6.80
2018-04-22T17:03:31.180Z,4.53
2018-04-22T17:05:57.385Z,5.18
2018-04-22T17:08:23.588Z,6.05
2018-04-22T17:10:49.738Z,5.20
2018-04-22T17:13:15.974Z,6.25
2018-04-22T17:15:42.204Z,6.68
2018-04-22T17:18:08.362Z,5.25
2018-04-22T17:20:34.560Z,6.53
2018-04-22T17:23:00.716Z,8.27
2018-04-22T17:25:26.913Z,6.55
2018-04-22T17:27:53.112Z,5.75
2018-04-22T17:30:19.364Z,6.25
2018-04-22T17:32:45.594Z,5.72
2018-04-22T17:35:11.764Z,7.15
2018-04-22T17:37:37.942Z,6.70
2018-04-22T17:40:04.114Z,10.20
2018-04-22T17:42:30.291Z,8.70
2018-04-22T17:44:57.241Z,6.95
2018-04-22T17:47:23.407Z,10.68
2018-04-22T17:49:49.568Z,5.97
2018-04-22T17:52:15.763Z,6.43
2018-04-22T17:54:41.923Z,9.13
2018-04-22T17:57:08.101Z,8.95
2018-04-22T17:59:35.038Z,7.50
2018-04-22T18:02:01.202Z,10.65
2018-04-22T18:04:27.384Z,10.43
2018-04-22T18:06:53.603Z,14.13
2018-04-22T18:09:21.477Z,13.68
2018-04-22T18:11:51.195Z,12.90
2018-04-22T18:14:17.722Z,17.10
2018-04-22T18:16:44.138Z,14.75
2018-04-22T18:19:11.814Z,13.02
2018-04-22T18:21:37.966Z,8.88
2018-04-22T18:24:04.156Z,18.52
2018-04-22T18:26:30.356Z,11.05
2018-04-22T18:28:56.536Z,12.63
2018-04-22T18:31:22.725Z,14.02
2018-04-22T18:33:48.925Z,11.30
2018-04-22T18:36:15.353Z,11.63
2018-04-22T18:38:41.492Z,10.32
2018-04-22T18:41:07.750Z,11.07
2018-04-22T18:43:34.041Z,9.00
2018-04-22T18:46:00.266Z,11.88
2018-04-22T18:48:26.433Z,10.00
2018-04-22T18:50:52.629Z,11.05
2018-04-22T18:53:18.823Z,14.93
2018-04-22T18:55:45.037Z,12.93
2018-04-22T18:58:12.772Z,14.75
2018-04-22T19:00:39.004Z,17.67
2018-04-22T19:03:05.227Z,16.00
2018-04-22T19:05:31.404Z,15.68
2018-04-22T19:07:57.624Z,14.63
2018-04-22T19:10:23.854Z,12.35
2018-04-22T19:12:50.026Z,12.88
2018-04-22T19:15:16.232Z,10.95
2018-04-22T19:20:26.414Z,9.57
2018-04-22T19:22:53.356Z,14.43
2018-04-22T19:25:19.607Z,9.98
2018-04-22T19:27:45.804Z,11.23
2018-04-22T19:30:12.012Z,11.68
2018-04-22T19:32:38.194Z,8.95
2018-04-22T19:35:04.376Z,7.55
2018-04-22T19:37:31.353Z,7.20
2018-04-22T19:39:57.541Z,9.05
2018-04-22T19:42:23.769Z,7.90
2018-04-22T19:44:50.760Z,6.68
2018-04-22T19:47:16.968Z,9.15
2018-04-22T19:49:43.217Z,9.27
2018-04-22T19:52:09.404Z,7.32
2018-04-22T19:54:35.613Z,7.03
2018-04-22T19:57:01.803Z,10.32
2018-04-22T19:59:28.000Z,8.32
2018-04-22T20:01:54.226Z,9.27
2018-04-22T20:04:20.391Z,11.18
2018-04-22T20:06:46.555Z,10.65
2018-04-22T20:09:12.718Z,9.07
2018-04-22T20:11:39.646Z,11.73
2018-04-22T20:14:05.850Z,8.98
2018-04-22T20:16:32.000Z,8.38
2018-04-22T20:18:58.189Z,9.43
2018-04-22T20:21:24.352Z,4.82
2018-04-22T20:23:51.256Z,12.07
2018-04-22T20:26:17.443Z,12.20
2018-04-22T20:28:43.640Z,11.25
2018-04-22T20:31:09.945Z,13.60
2018-04-22T20:33:36.145Z,7.50
2018-04-22T20:36:02.332Z,7.15
2018-04-22T20:41:12.916Z,6.82
2018-04-22T20:43:39.118Z,8.43
2018-04-22T20:46:05.344Z,8.50
2018-04-22T20:48:31.512Z,13.30
2018-04-22T20:50:57.689Z,12.32
2018-04-22T20:53:23.893Z,10.25
2018-04-22T20:55:50.086Z,8.93
2018-04-22T20:58:16.315Z,8.80
2018-04-22T21:00:42.866Z,9.18
2018-04-22T21:03:10.500Z,7.30
2018-04-22T21:05:36.686Z,9.50
2018-04-22T21:08:02.852Z,10.52
2018-04-22T21:10:29.042Z,8.25
2018-04-22T21:12:55.197Z,9.38
2018-04-22T21:15:21.396Z,7.65
2018-04-22T21:17:47.598Z,5.80
2018-04-22T21:20:13.834Z,10.95
2018-04-22T21:22:39.983Z,13.55
2018-04-22T21:25:07.375Z,7.57
2018-04-22T21:27:33.552Z,8.68
2018-04-22T21:29:59.758Z,11.15
2018-04-22T21:32:25.915Z,9.35
2018-04-22T21:34:52.070Z,5.60
2018-04-22T21:37:18.234Z,6.62
2018-04-22T21:39:44.424Z,6.78
2018-04-22T21:42:10.812Z,6.85
2018-04-22T21:44:37.384Z,6.70
2018-04-22T21:47:03.581Z,6.22
2018-04-22T21:49:29.760Z,8.13
2018-04-22T21:51:55.938Z,7.75
2018-04-22T21:54:22.146Z,7.10
2018-04-22T21:56:48.323Z,8.75
2018-04-22T21:59:14.730Z,6.10
2018-04-22T22:01:40.881Z,5.35
2018-04-22T22:04:07.038Z,6.60
2018-04-22T22:06:33.260Z,5.32
2018-04-22T22:08:59.403Z,5.78
2018-04-22T22:11:25.565Z,4.78
2018-04-22T22:13:51.732Z,5.35
2018-04-22T22:16:17.893Z,4.00
2018-04-22T22:18:45.067Z,5.65
2018-04-22T22:21:11.229Z,5.18
2018-04-22T22:23:37.440Z,6.10
2018-04-22T22:26:03.576Z,5.25
2018-04-22T22:28:29.725Z,5.18
2018-04-22T22:30:55.911Z,5.30
2018-04-22T22:33:22.046Z,7.68
2018-04-22T22:35:48.225Z,5.72
2018-04-22T22:38:14.370Z,6.35
2018-04-22T22:40:40.521Z,5.32
2018-04-22T22:43:06.725Z,5.45
2018-04-22T22:45:32.871Z,7.62
2018-04-22T22:47:59.017Z,6.60
2018-04-22T22:50:25.157Z,6.82
2018-04-22T22:52:52.072Z,5.25
2018-04-22T22:55:18.269Z,4.93
2018-04-22T22:57:44.446Z,4.07
2018-04-22T23:00:10.663Z,5.07
2018-04-22T23:02:36.878Z,3.53
2018-04-22T23:05:03.073Z,4.60
2018-04-22T23:07:29.249Z,5.85
2018-04-22T23:09:55.432Z,5.03
2018-04-22T23:12:21.609Z,4.72
2018-04-22T23:14:47.808Z,5.28
2018-04-22T23:17:14.016Z,4.95
2018-04-22T23:19:40.176Z,6.47
2018-04-22T23:22:06.327Z,4.47
2018-04-22T23:24:32.465Z,3.50
2018-04-22T23:26:58.637Z,4.93
2018-04-22T23:29:24.819Z,5.37
2018-04-22T23:31:51.728Z,4.82
2018-04-22T23:34:17.888Z,5.82
2018-04-22T23:36:44.028Z,3.25
2018-04-22T23:39:10.179Z,3.53
2018-04-22T23:41:36.641Z,4.20
2018-04-22T23:44:02.895Z,4.32
2018-04-22T23:46:29.072Z,3.95
2018-04-22T23:48:55.294Z,4.32
2018-04-22T23:51:21.441Z,5.93
2018-04-22T23:53:47.654Z,3.83
2018-04-22T23:56:13.869Z,4.50
2018-04-22T23:58:40.025Z,4.22
